DLH1926 LLBG-EDDM
Flight info
| Callsign | DLH1926 |
|---|---|
| Flight time | 3h 28m |
| Altitude | 38000 |
| Route | SUVAS DCT TEZAK N128 OTHON DCT VAXOS UN128 RDS UL609 MES DCT FSK DCT DISOR DCT LONTA UL608 DOLEV DCT PETOV DCT VATET DCT REDBU Q112 NAPSA NAPSA1B |
| Aircraft | A388/J-SADE2E3FGHIJ3J4J5M1RWXY/LB1D1 |
Departure
| Time | 2026-05-04 14:58 |
|---|---|
| Airport | Ben Gurion International Airport (LLBG) |
Arrival
| Time | 2026-05-04 18:27 |
|---|---|
| Airport | Munich Airport (EDDM) |
| Time | Latitude | Longitude | Altitude | Speed | Heading |
|---|---|---|---|---|---|
| 2026-05-04 14:21 | 32.00606 | 34.87508 | 125 ft | 0 kts | 243° |
| 2026-05-04 14:21 | 32.00609 | 34.87515 | 125 ft | 0 kts | 243° |
| 2026-05-04 14:42 | 32.00614 | 34.87523 | 120 ft | 2 kts | 235° |
| 2026-05-04 14:43 | 32.00625 | 34.87537 | 120 ft | 2 kts | 218° |
| 2026-05-04 14:43 | 32.00641 | 34.87544 | 120 ft | 2 kts | 191° |
| 2026-05-04 14:43 | 32.00657 | 34.87541 | 120 ft | 2 kts | 164° |
| 2026-05-04 14:43 | 32.00671 | 34.87531 | 122 ft | 2 kts | 142° |
| 2026-05-04 14:44 | 32.00677 | 34.87524 | 120 ft | 1 kts | 131° |
| 2026-05-04 14:49 | 32.00673 | 34.87529 | 120 ft | 2 kts | 125° |
| 2026-05-04 14:50 | 32.00647 | 34.87584 | 121 ft | 16 kts | 120° |
| 2026-05-04 14:50 | 32.00579 | 34.87720 | 123 ft | 21 kts | 120° |
| 2026-05-04 14:50 | 32.00563 | 34.87752 | 123 ft | 7 kts | 121° |
| 2026-05-04 14:50 | 32.00535 | 34.87804 | 121 ft | 0 kts | 122° |
| 2026-05-04 14:51 | 32.00530 | 34.87850 | 122 ft | 13 kts | 74° |
| 2026-05-04 14:51 | 32.00599 | 34.87926 | 121 ft | 15 kts | 32° |
| 2026-05-04 14:51 | 32.00709 | 34.88001 | 122 ft | 25 kts | 30° |
| 2026-05-04 14:51 | 32.00853 | 34.88108 | 123 ft | 24 kts | 35° |
| 2026-05-04 14:52 | 32.00994 | 34.88215 | 120 ft | 24 kts | 31° |
| 2026-05-04 14:52 | 32.01141 | 34.88319 | 121 ft | 25 kts | 30° |
| 2026-05-04 14:52 | 32.01283 | 34.88429 | 120 ft | 25 kts | 41° |
| 2026-05-04 14:52 | 32.01402 | 34.88584 | 120 ft | 27 kts | 54° |
| 2026-05-04 14:53 | 32.01447 | 34.88729 | 120 ft | 0 kts | 64° |
| 2026-05-04 14:53 | 32.01466 | 34.88774 | 121 ft | 15 kts | 64° |
| 2026-05-04 14:53 | 32.01510 | 34.88908 | 121 ft | 20 kts | 76° |
| 2026-05-04 14:53 | 32.01534 | 34.89083 | 121 ft | 24 kts | 82° |
| 2026-05-04 14:54 | 32.01565 | 34.89296 | 121 ft | 29 kts | 79° |
| 2026-05-04 14:54 | 32.01601 | 34.89512 | 122 ft | 27 kts | 79° |
| 2026-05-04 14:54 | 32.01648 | 34.89675 | 121 ft | 11 kts | 45° |
| 2026-05-04 14:54 | 32.01654 | 34.89680 | 120 ft | 0 kts | 38° |
| 2026-05-04 14:55 | 32.01655 | 34.89681 | 120 ft | 2 kts | 38° |
| 2026-05-04 14:55 | 32.01709 | 34.89725 | 121 ft | 19 kts | 32° |
| 2026-05-04 14:56 | 32.01835 | 34.89775 | 121 ft | 11 kts | 339° |
| 2026-05-04 14:56 | 32.01841 | 34.89772 | 121 ft | 1 kts | 336° |
| 2026-05-04 14:56 | 32.01846 | 34.89769 | 121 ft | 1 kts | 325° |
| 2026-05-04 14:56 | 32.01859 | 34.89755 | 120 ft | 3 kts | 304° |
| 2026-05-04 14:57 | 32.01864 | 34.89741 | 120 ft | 1 kts | 272° |
| 2026-05-04 14:57 | 32.01853 | 34.89690 | 121 ft | 8 kts | 246° |
| 2026-05-04 14:57 | 32.01817 | 34.89535 | 120 ft | 52 kts | 259° |
| 2026-05-04 14:57 | 32.01709 | 34.88837 | 126 ft | 117 kts | 259° |
| 2026-05-04 14:58 | 32.01527 | 34.87752 | 221 ft | 149 kts | 259° |
| 2026-05-04 14:58 | 32.01284 | 34.86584 | 794 ft | 144 kts | 256° |
| 2026-05-04 14:58 | 32.01018 | 34.85456 | 1419 ft | 142 kts | 256° |
| 2026-05-04 14:58 | 32.00753 | 34.84317 | 1913 ft | 146 kts | 261° |
| 2026-05-04 14:59 | 32.00673 | 34.83111 | 2361 ft | 155 kts | 268° |
| 2026-05-04 14:59 | 32.00685 | 34.81786 | 2591 ft | 173 kts | 278° |
| 2026-05-04 14:59 | 32.01854 | 34.78877 | 3426 ft | 221 kts | 297° |
| 2026-05-04 15:00 | 32.02651 | 34.77246 | 3874 ft | 239 kts | 296° |
| 2026-05-04 15:00 | 32.03492 | 34.75529 | 3975 ft | 244 kts | 297° |
| 2026-05-04 15:00 | 32.04357 | 34.73789 | 4354 ft | 247 kts | 297° |
| 2026-05-04 15:01 | 32.06120 | 34.70264 | 6064 ft | 252 kts | 296° |
| 2026-05-04 15:01 | 32.07014 | 34.68475 | 6910 ft | 254 kts | 296° |
| 2026-05-04 15:01 | 32.07915 | 34.66676 | 7797 ft | 255 kts | 297° |
| 2026-05-04 15:01 | 32.08822 | 34.64864 | 8658 ft | 258 kts | 297° |
| 2026-05-04 15:02 | 32.09726 | 34.63056 | 9455 ft | 262 kts | 297° |
| 2026-05-04 15:02 | 32.10655 | 34.61196 | 10300 ft | 264 kts | 296° |
| 2026-05-04 15:02 | 32.11614 | 34.59267 | 10617 ft | 284 kts | 296° |
| 2026-05-04 15:02 | 32.12648 | 34.57181 | 10813 ft | 305 kts | 297° |
| 2026-05-04 15:03 | 32.13747 | 34.55022 | 11097 ft | 307 kts | 298° |
| 2026-05-04 15:03 | 32.14884 | 34.52850 | 11256 ft | 316 kts | 296° |
| 2026-05-04 15:03 | 32.15973 | 34.50613 | 12132 ft | 312 kts | 296° |
| 2026-05-04 15:03 | 32.17058 | 34.48387 | 12887 ft | 314 kts | 296° |
| 2026-05-04 15:04 | 32.18159 | 34.46144 | 13621 ft | 317 kts | 296° |
| 2026-05-04 15:04 | 32.19255 | 34.43927 | 14304 ft | 318 kts | 296° |
| 2026-05-04 15:04 | 32.20372 | 34.41674 | 14981 ft | 318 kts | 295° |
| 2026-05-04 15:04 | 32.21494 | 34.39416 | 15653 ft | 319 kts | 295° |
| 2026-05-04 15:05 | 32.22616 | 34.37154 | 16334 ft | 320 kts | 295° |
| 2026-05-04 15:05 | 32.23741 | 34.34884 | 17015 ft | 321 kts | 295° |
| 2026-05-04 15:05 | 32.24870 | 34.32605 | 17696 ft | 321 kts | 294° |
| 2026-05-04 15:05 | 32.25997 | 34.30328 | 18342 ft | 322 kts | 294° |
| 2026-05-04 15:06 | 32.27131 | 34.28036 | 18844 ft | 324 kts | 294° |
| 2026-05-04 15:06 | 32.28255 | 34.25762 | 19360 ft | 326 kts | 294° |
| 2026-05-04 15:06 | 32.29401 | 34.23442 | 19852 ft | 328 kts | 294° |
| 2026-05-04 15:07 | 32.31715 | 34.18753 | 20856 ft | 332 kts | 294° |
| 2026-05-04 15:07 | 32.32882 | 34.16387 | 21342 ft | 334 kts | 293° |
| 2026-05-04 15:07 | 32.34058 | 34.14001 | 21832 ft | 336 kts | 293° |
| 2026-05-04 15:07 | 32.35239 | 34.11605 | 22309 ft | 339 kts | 293° |
| 2026-05-04 15:08 | 32.36427 | 34.09190 | 22792 ft | 341 kts | 293° |
| 2026-05-04 15:08 | 32.37626 | 34.06753 | 23261 ft | 343 kts | 293° |
| 2026-05-04 15:08 | 32.38814 | 34.04337 | 23700 ft | 346 kts | 293° |
| 2026-05-04 15:08 | 32.40024 | 34.01874 | 24092 ft | 347 kts | 293° |
| 2026-05-04 15:09 | 32.41233 | 33.99412 | 24501 ft | 349 kts | 293° |
| 2026-05-04 15:09 | 32.42456 | 33.96921 | 24899 ft | 351 kts | 293° |
| 2026-05-04 15:09 | 32.43688 | 33.94407 | 25310 ft | 354 kts | 293° |
| 2026-05-04 15:10 | 32.46171 | 33.89339 | 26174 ft | 358 kts | 292° |
| 2026-05-04 15:10 | 32.47422 | 33.86781 | 26631 ft | 360 kts | 292° |
| 2026-05-04 15:10 | 32.49931 | 33.81648 | 27570 ft | 365 kts | 292° |
| 2026-05-04 15:11 | 32.51206 | 33.79037 | 28048 ft | 367 kts | 292° |
| 2026-05-04 15:11 | 32.52490 | 33.76405 | 28538 ft | 370 kts | 292° |
| 2026-05-04 15:11 | 32.53781 | 33.73756 | 29015 ft | 373 kts | 292° |
| 2026-05-04 15:11 | 32.55083 | 33.71086 | 29496 ft | 375 kts | 292° |
| 2026-05-04 15:12 | 32.56391 | 33.68399 | 29991 ft | 378 kts | 292° |
| 2026-05-04 15:12 | 32.57709 | 33.65690 | 30399 ft | 381 kts | 292° |
| 2026-05-04 15:12 | 32.59039 | 33.62953 | 30794 ft | 384 kts | 292° |
| 2026-05-04 15:12 | 32.60362 | 33.60230 | 31187 ft | 387 kts | 292° |
| 2026-05-04 15:13 | 32.61710 | 33.57454 | 31573 ft | 391 kts | 293° |
| 2026-05-04 15:13 | 32.63073 | 33.54644 | 31966 ft | 394 kts | 293° |
| 2026-05-04 15:13 | 32.64444 | 33.51817 | 32356 ft | 397 kts | 293° |
| 2026-05-04 15:13 | 32.65822 | 33.48970 | 32736 ft | 400 kts | 293° |
| 2026-05-04 15:14 | 32.67214 | 33.46096 | 33118 ft | 403 kts | 293° |
| 2026-05-04 15:14 | 32.68617 | 33.43195 | 33501 ft | 406 kts | 293° |
| 2026-05-04 15:14 | 32.70029 | 33.40273 | 33878 ft | 410 kts | 293° |
| 2026-05-04 15:14 | 32.71431 | 33.37368 | 34202 ft | 413 kts | 293° |
| 2026-05-04 15:15 | 32.72865 | 33.34395 | 34484 ft | 417 kts | 293° |
| 2026-05-04 15:15 | 32.74308 | 33.31402 | 34826 ft | 419 kts | 293° |
| 2026-05-04 15:15 | 32.75760 | 33.28391 | 35231 ft | 420 kts | 293° |
| 2026-05-04 15:16 | 32.78594 | 33.22515 | 35766 ft | 408 kts | 293° |
| 2026-05-04 15:16 | 32.80004 | 33.19586 | 35617 ft | 408 kts | 293° |
| 2026-05-04 15:16 | 32.82849 | 33.13638 | 35784 ft | 420 kts | 293° |
| 2026-05-04 15:17 | 32.84282 | 33.10644 | 36111 ft | 422 kts | 293° |
| 2026-05-04 15:17 | 32.87193 | 33.04568 | 36911 ft | 424 kts | 294° |
| 2026-05-04 15:17 | 32.88653 | 33.01518 | 37303 ft | 424 kts | 294° |
| 2026-05-04 15:18 | 32.90112 | 32.98464 | 37703 ft | 425 kts | 294° |
| 2026-05-04 15:18 | 32.91574 | 32.95400 | 37958 ft | 429 kts | 294° |
| 2026-05-04 15:19 | 32.95988 | 32.86140 | 37973 ft | 428 kts | 294° |
| 2026-05-04 15:19 | 33.00376 | 32.76908 | 37968 ft | 429 kts | 294° |
| 2026-05-04 15:20 | 33.03312 | 32.70720 | 37969 ft | 429 kts | 294° |
| 2026-05-04 15:20 | 33.06243 | 32.64528 | 37964 ft | 429 kts | 294° |
| 2026-05-04 15:21 | 33.09167 | 32.58344 | 37956 ft | 428 kts | 294° |
| 2026-05-04 15:22 | 33.13526 | 32.49102 | 37962 ft | 428 kts | 294° |
| 2026-05-04 15:22 | 33.17895 | 32.39814 | 37958 ft | 428 kts | 294° |
| 2026-05-04 15:23 | 33.20811 | 32.33603 | 37962 ft | 428 kts | 294° |
| 2026-05-04 15:23 | 33.23701 | 32.27436 | 37962 ft | 429 kts | 294° |
| 2026-05-04 15:24 | 33.29521 | 32.14986 | 37960 ft | 429 kts | 294° |
| 2026-05-04 15:25 | 33.32426 | 32.08753 | 37962 ft | 430 kts | 294° |
| 2026-05-04 15:26 | 33.36766 | 31.99426 | 37961 ft | 430 kts | 294° |
| 2026-05-04 15:26 | 33.41114 | 31.90055 | 37959 ft | 430 kts | 294° |
| 2026-05-04 15:27 | 33.45466 | 31.80661 | 37960 ft | 430 kts | 294° |
| 2026-05-04 15:28 | 33.50377 | 31.71624 | 37954 ft | 433 kts | 299° |
| 2026-05-04 15:29 | 33.55441 | 31.62725 | 37961 ft | 433 kts | 299° |
| 2026-05-04 15:30 | 33.67236 | 31.41866 | 37956 ft | 432 kts | 299° |
| 2026-05-04 15:31 | 33.72288 | 31.32895 | 37949 ft | 432 kts | 299° |
| 2026-05-04 15:32 | 33.80672 | 31.17959 | 37948 ft | 433 kts | 299° |
| 2026-05-04 15:34 | 33.89072 | 31.02932 | 37947 ft | 433 kts | 300° |
| 2026-05-04 15:34 | 33.94090 | 30.93927 | 37948 ft | 434 kts | 300° |
| 2026-05-04 15:35 | 33.99127 | 30.84861 | 37943 ft | 434 kts | 300° |
| 2026-05-04 15:36 | 34.04163 | 30.75776 | 37946 ft | 435 kts | 300° |
| 2026-05-04 15:36 | 34.07527 | 30.69694 | 37943 ft | 436 kts | 300° |
| 2026-05-04 15:37 | 34.10865 | 30.63649 | 37944 ft | 436 kts | 300° |
| 2026-05-04 15:37 | 34.14230 | 30.57545 | 37958 ft | 437 kts | 300° |
| 2026-05-04 15:38 | 34.17594 | 30.51433 | 37957 ft | 438 kts | 300° |
| 2026-05-04 15:38 | 34.20966 | 30.45294 | 37954 ft | 439 kts | 300° |
| 2026-05-04 15:39 | 34.24316 | 30.39186 | 37937 ft | 439 kts | 300° |
| 2026-05-04 15:40 | 34.29380 | 30.29934 | 37935 ft | 440 kts | 300° |
| 2026-05-04 15:40 | 34.32760 | 30.23746 | 37935 ft | 441 kts | 300° |
| 2026-05-04 15:41 | 34.36137 | 30.17551 | 37945 ft | 441 kts | 300° |
| 2026-05-04 15:41 | 34.39471 | 30.11433 | 37944 ft | 423 kts | 300° |
| 2026-05-04 15:42 | 34.42697 | 30.05491 | 37942 ft | 433 kts | 300° |
| 2026-05-04 15:42 | 34.46288 | 29.99449 | 37943 ft | 449 kts | 307° |
| 2026-05-04 15:43 | 34.50576 | 29.94002 | 37944 ft | 448 kts | 310° |
| 2026-05-04 15:43 | 34.55026 | 29.88689 | 37947 ft | 452 kts | 317° |
| 2026-05-04 15:44 | 34.59934 | 29.83902 | 37950 ft | 453 kts | 317° |
| 2026-05-04 15:44 | 34.64801 | 29.79135 | 37944 ft | 454 kts | 317° |
| 2026-05-04 15:45 | 34.69717 | 29.74304 | 37946 ft | 454 kts | 317° |
| 2026-05-04 15:45 | 34.74634 | 29.69462 | 37951 ft | 455 kts | 317° |
| 2026-05-04 15:46 | 34.79557 | 29.64607 | 37949 ft | 455 kts | 317° |
| 2026-05-04 15:46 | 34.84472 | 29.59751 | 37945 ft | 456 kts | 317° |
| 2026-05-04 15:47 | 34.89363 | 29.54912 | 37939 ft | 456 kts | 317° |
| 2026-05-04 15:47 | 34.94283 | 29.50036 | 37936 ft | 456 kts | 317° |
| 2026-05-04 15:48 | 34.99207 | 29.45149 | 37937 ft | 456 kts | 317° |
| 2026-05-04 15:48 | 35.06588 | 29.37808 | 37935 ft | 457 kts | 317° |
| 2026-05-04 15:49 | 35.11513 | 29.32900 | 37934 ft | 457 kts | 317° |
| 2026-05-04 15:49 | 35.16443 | 29.27979 | 37937 ft | 457 kts | 318° |
| 2026-05-04 15:50 | 35.21340 | 29.23083 | 37937 ft | 458 kts | 318° |
| 2026-05-04 15:50 | 35.26265 | 29.18151 | 37940 ft | 458 kts | 318° |
| 2026-05-04 15:51 | 35.31192 | 29.13209 | 37940 ft | 458 kts | 318° |
| 2026-05-04 15:51 | 35.36119 | 29.08259 | 37933 ft | 458 kts | 318° |
| 2026-05-04 15:52 | 35.41044 | 29.03304 | 37942 ft | 458 kts | 318° |
| 2026-05-04 15:52 | 35.45927 | 28.98381 | 37941 ft | 458 kts | 318° |
| 2026-05-04 15:53 | 35.50844 | 28.93417 | 37937 ft | 458 kts | 318° |
| 2026-05-04 15:53 | 35.55759 | 28.88446 | 37933 ft | 458 kts | 318° |
| 2026-05-04 15:54 | 35.60668 | 28.83474 | 37939 ft | 458 kts | 318° |
| 2026-05-04 15:54 | 35.65582 | 28.78489 | 37939 ft | 458 kts | 318° |
| 2026-05-04 15:55 | 35.70502 | 28.73489 | 37926 ft | 459 kts | 318° |
| 2026-05-04 15:55 | 35.75416 | 28.68487 | 37934 ft | 459 kts | 318° |
| 2026-05-04 15:56 | 35.80304 | 28.63503 | 37957 ft | 459 kts | 318° |
| 2026-05-04 15:56 | 35.85232 | 28.58470 | 37965 ft | 460 kts | 318° |
| 2026-05-04 15:57 | 35.90155 | 28.53434 | 37960 ft | 460 kts | 318° |
| 2026-05-04 15:57 | 35.95084 | 28.48383 | 37970 ft | 461 kts | 318° |
| 2026-05-04 15:58 | 36.00015 | 28.43321 | 37977 ft | 461 kts | 318° |
| 2026-05-04 15:58 | 36.04948 | 28.38249 | 37975 ft | 461 kts | 318° |
| 2026-05-04 15:59 | 36.09837 | 28.33214 | 37956 ft | 461 kts | 319° |
| 2026-05-04 15:59 | 36.14758 | 28.28137 | 37959 ft | 461 kts | 319° |
| 2026-05-04 16:00 | 36.19679 | 28.23051 | 37962 ft | 461 kts | 319° |
| 2026-05-04 16:00 | 36.24595 | 28.17963 | 37966 ft | 461 kts | 319° |
| 2026-05-04 16:01 | 36.29512 | 28.12866 | 37960 ft | 461 kts | 319° |
| 2026-05-04 16:01 | 36.34377 | 28.07769 | 37960 ft | 461 kts | 316° |
| 2026-05-04 16:02 | 36.39061 | 28.02328 | 37957 ft | 462 kts | 316° |
| 2026-05-04 16:03 | 36.46153 | 27.94175 | 37959 ft | 464 kts | 316° |
| 2026-05-04 16:03 | 36.50874 | 27.88716 | 37973 ft | 464 kts | 316° |
| 2026-05-04 16:04 | 36.55601 | 27.83234 | 37987 ft | 465 kts | 316° |
| 2026-05-04 16:04 | 36.62650 | 27.75043 | 38034 ft | 464 kts | 316° |
| 2026-05-04 16:05 | 36.67366 | 27.69550 | 38021 ft | 464 kts | 316° |
| 2026-05-04 16:06 | 36.74425 | 27.61312 | 38011 ft | 463 kts | 316° |
| 2026-05-04 16:07 | 36.83781 | 27.50358 | 38014 ft | 463 kts | 316° |
| 2026-05-04 16:08 | 36.93164 | 27.39334 | 38024 ft | 463 kts | 316° |
| 2026-05-04 16:09 | 37.04862 | 27.25535 | 38032 ft | 464 kts | 316° |
| 2026-05-04 16:10 | 37.14240 | 27.14427 | 38035 ft | 464 kts | 316° |
| 2026-05-04 16:11 | 37.23606 | 27.03295 | 38036 ft | 464 kts | 316° |
| 2026-05-04 16:12 | 37.37608 | 26.86577 | 38046 ft | 464 kts | 316° |
| 2026-05-04 16:13 | 37.47252 | 26.75821 | 38050 ft | 464 kts | 320° |
| 2026-05-04 16:14 | 37.57050 | 26.65308 | 38048 ft | 464 kts | 319° |
| 2026-05-04 16:16 | 37.69265 | 26.52040 | 38058 ft | 463 kts | 319° |
| 2026-05-04 16:17 | 37.81475 | 26.38758 | 38066 ft | 463 kts | 319° |
| 2026-05-04 16:18 | 37.91190 | 26.28135 | 38060 ft | 463 kts | 319° |
| 2026-05-04 16:19 | 38.03365 | 26.14738 | 38065 ft | 464 kts | 319° |
| 2026-05-04 16:20 | 38.15501 | 26.01323 | 38070 ft | 464 kts | 319° |
| 2026-05-04 16:22 | 38.27764 | 25.88069 | 38059 ft | 464 kts | 323° |
| 2026-05-04 16:23 | 38.43164 | 25.73067 | 38070 ft | 466 kts | 323° |
| 2026-05-04 16:25 | 38.57727 | 25.58809 | 38092 ft | 466 kts | 322° |
| 2026-05-04 16:26 | 38.75680 | 25.41124 | 38088 ft | 466 kts | 322° |
| 2026-05-04 16:28 | 38.89338 | 25.27593 | 38084 ft | 466 kts | 322° |
| 2026-05-04 16:29 | 39.06422 | 25.10572 | 38081 ft | 467 kts | 322° |
| 2026-05-04 16:31 | 39.19207 | 24.97765 | 38085 ft | 467 kts | 322° |
| 2026-05-04 16:32 | 39.34608 | 24.82256 | 38079 ft | 468 kts | 322° |
| 2026-05-04 16:33 | 39.44842 | 24.71900 | 38078 ft | 469 kts | 322° |
| 2026-05-04 16:34 | 39.52549 | 24.64075 | 38079 ft | 469 kts | 322° |
| 2026-05-04 16:35 | 39.67922 | 24.48399 | 38078 ft | 470 kts | 322° |
| 2026-05-04 16:36 | 39.75625 | 24.40510 | 38078 ft | 470 kts | 322° |
| 2026-05-04 16:37 | 39.83285 | 24.32642 | 38072 ft | 470 kts | 322° |
| 2026-05-04 16:38 | 39.93545 | 24.22067 | 38070 ft | 470 kts | 322° |
| 2026-05-04 16:39 | 40.06319 | 24.08842 | 38066 ft | 470 kts | 322° |
| 2026-05-04 16:40 | 40.16555 | 23.98198 | 38075 ft | 470 kts | 323° |
| 2026-05-04 16:41 | 40.29269 | 23.84918 | 38075 ft | 470 kts | 323° |
| 2026-05-04 16:43 | 40.42033 | 23.71520 | 38057 ft | 470 kts | 323° |
| 2026-05-04 16:43 | 40.49649 | 23.63493 | 38063 ft | 470 kts | 323° |
| 2026-05-04 16:45 | 40.64925 | 23.47321 | 38067 ft | 470 kts | 323° |
| 2026-05-04 16:46 | 40.77597 | 23.33829 | 38070 ft | 469 kts | 323° |
| 2026-05-04 16:47 | 40.87738 | 23.22985 | 38076 ft | 469 kts | 323° |
| 2026-05-04 16:48 | 40.97831 | 23.12147 | 38078 ft | 469 kts | 323° |
| 2026-05-04 16:49 | 41.07922 | 23.01213 | 38070 ft | 469 kts | 320° |
| 2026-05-04 16:50 | 41.16679 | 22.88427 | 38072 ft | 470 kts | 313° |
| 2026-05-04 16:51 | 41.23028 | 22.78511 | 38071 ft | 469 kts | 313° |
| 2026-05-04 16:52 | 41.31688 | 22.65607 | 38093 ft | 466 kts | 316° |
| 2026-05-04 16:53 | 41.38216 | 22.56103 | 38091 ft | 465 kts | 315° |
| 2026-05-04 16:54 | 41.46900 | 22.43326 | 38085 ft | 465 kts | 315° |
| 2026-05-04 16:55 | 41.59851 | 22.24169 | 38085 ft | 464 kts | 315° |
| 2026-05-04 16:56 | 41.70585 | 22.08197 | 38083 ft | 462 kts | 315° |
| 2026-05-04 16:57 | 41.77012 | 21.98593 | 38084 ft | 461 kts | 316° |
| 2026-05-04 16:58 | 41.85541 | 21.85798 | 38071 ft | 459 kts | 316° |
| 2026-05-04 17:00 | 41.98248 | 21.66634 | 38063 ft | 459 kts | 316° |
| 2026-05-04 17:01 | 42.08782 | 21.50652 | 38069 ft | 457 kts | 315° |
| 2026-05-04 17:02 | 42.17197 | 21.37813 | 38088 ft | 457 kts | 315° |
| 2026-05-04 17:03 | 42.23366 | 21.27999 | 38120 ft | 457 kts | 315° |
| 2026-05-04 17:03 | 42.29499 | 21.18231 | 38118 ft | 457 kts | 315° |
| 2026-05-04 17:04 | 42.37723 | 21.05108 | 38127 ft | 458 kts | 314° |
| 2026-05-04 17:05 | 42.45930 | 20.91954 | 38138 ft | 459 kts | 314° |
| 2026-05-04 17:06 | 42.52098 | 20.82029 | 38133 ft | 459 kts | 314° |
| 2026-05-04 17:07 | 42.57563 | 20.73206 | 38129 ft | 459 kts | 314° |
| 2026-05-04 17:07 | 42.62325 | 20.65498 | 38123 ft | 459 kts | 314° |
| 2026-05-04 17:08 | 42.68467 | 20.55524 | 38119 ft | 459 kts | 314° |
| 2026-05-04 17:09 | 42.72555 | 20.48869 | 38118 ft | 458 kts | 314° |
| 2026-05-04 17:09 | 42.76613 | 20.42245 | 38120 ft | 458 kts | 314° |
| 2026-05-04 17:10 | 42.87406 | 20.26556 | 38088 ft | 451 kts | 323° |
| 2026-05-04 17:11 | 42.92195 | 20.21026 | 38078 ft | 451 kts | 323° |
| 2026-05-04 17:12 | 42.99341 | 20.12752 | 38089 ft | 451 kts | 323° |
| 2026-05-04 17:13 | 43.11294 | 19.98891 | 38082 ft | 453 kts | 323° |
| 2026-05-04 17:14 | 43.20891 | 19.87702 | 38084 ft | 453 kts | 322° |
| 2026-05-04 17:15 | 43.28097 | 19.79268 | 38081 ft | 454 kts | 322° |
| 2026-05-04 17:16 | 43.37662 | 19.68035 | 38077 ft | 454 kts | 322° |
| 2026-05-04 17:17 | 43.47243 | 19.56735 | 38062 ft | 453 kts | 322° |
| 2026-05-04 17:18 | 43.56793 | 19.45421 | 38091 ft | 455 kts | 322° |
| 2026-05-04 17:19 | 43.66397 | 19.33995 | 38084 ft | 456 kts | 322° |
| 2026-05-04 17:20 | 43.75959 | 19.22565 | 38088 ft | 456 kts | 322° |
| 2026-05-04 17:20 | 43.83139 | 19.13952 | 38079 ft | 455 kts | 321° |
| 2026-05-04 17:21 | 43.91432 | 19.03967 | 38068 ft | 454 kts | 321° |
| 2026-05-04 17:22 | 43.93779 | 19.01132 | 38058 ft | 443 kts | 321° |
| 2026-05-04 17:22 | 43.96081 | 18.98351 | 38063 ft | 449 kts | 321° |
| 2026-05-04 17:23 | 44.05599 | 18.86822 | 38063 ft | 454 kts | 321° |
| 2026-05-04 17:24 | 44.12780 | 18.78088 | 38057 ft | 463 kts | 319° |
| 2026-05-04 17:25 | 44.22408 | 18.66330 | 38051 ft | 462 kts | 319° |
| 2026-05-04 17:26 | 44.32057 | 18.54494 | 38052 ft | 461 kts | 319° |
| 2026-05-04 17:27 | 44.44056 | 18.39700 | 38045 ft | 461 kts | 319° |
| 2026-05-04 17:28 | 44.53623 | 18.27844 | 38039 ft | 461 kts | 319° |
| 2026-05-04 17:29 | 44.67992 | 18.09934 | 38027 ft | 461 kts | 318° |
| 2026-05-04 17:31 | 44.79925 | 17.94966 | 38025 ft | 461 kts | 318° |
| 2026-05-04 17:32 | 44.91845 | 17.79928 | 38015 ft | 462 kts | 318° |
| 2026-05-04 17:33 | 45.01402 | 17.67807 | 38018 ft | 462 kts | 318° |
| 2026-05-04 17:34 | 45.10969 | 17.55617 | 38014 ft | 463 kts | 317° |
| 2026-05-04 17:35 | 45.22889 | 17.40348 | 38015 ft | 464 kts | 317° |
| 2026-05-04 17:36 | 45.27676 | 17.34192 | 38020 ft | 464 kts | 317° |
| 2026-05-04 17:36 | 45.32457 | 17.28027 | 38015 ft | 464 kts | 317° |
| 2026-05-04 17:37 | 45.37210 | 17.21885 | 38023 ft | 465 kts | 317° |
| 2026-05-04 17:37 | 45.41995 | 17.15684 | 38023 ft | 465 kts | 317° |
| 2026-05-04 17:38 | 45.46776 | 17.09476 | 38023 ft | 466 kts | 317° |
| 2026-05-04 17:38 | 45.51562 | 17.03247 | 38014 ft | 466 kts | 317° |
| 2026-05-04 17:39 | 45.58732 | 16.93885 | 38015 ft | 466 kts | 317° |
| 2026-05-04 17:39 | 45.63480 | 16.87667 | 38012 ft | 466 kts | 317° |
| 2026-05-04 17:40 | 45.68260 | 16.81392 | 38014 ft | 466 kts | 316° |
| 2026-05-04 17:40 | 45.73026 | 16.75120 | 38016 ft | 467 kts | 316° |
| 2026-05-04 17:41 | 45.77801 | 16.68822 | 38014 ft | 467 kts | 316° |
| 2026-05-04 17:41 | 45.82476 | 16.62640 | 37733 ft | 461 kts | 316° |
| 2026-05-04 17:42 | 45.84826 | 16.59528 | 37058 ft | 461 kts | 316° |
| 2026-05-04 17:42 | 45.87153 | 16.56441 | 36332 ft | 461 kts | 316° |
| 2026-05-04 17:42 | 45.89497 | 16.53328 | 36048 ft | 458 kts | 316° |
| 2026-05-04 17:42 | 45.91855 | 16.50192 | 36005 ft | 466 kts | 316° |
| 2026-05-04 17:43 | 45.96636 | 16.43825 | 36001 ft | 469 kts | 316° |
| 2026-05-04 17:43 | 46.01411 | 16.37450 | 36002 ft | 468 kts | 316° |
| 2026-05-04 17:44 | 46.06181 | 16.31065 | 35997 ft | 469 kts | 316° |
| 2026-05-04 17:44 | 46.10919 | 16.24708 | 35997 ft | 469 kts | 316° |
| 2026-05-04 17:45 | 46.15685 | 16.18297 | 35995 ft | 469 kts | 316° |
| 2026-05-04 17:45 | 46.20450 | 16.11877 | 35998 ft | 468 kts | 316° |
| 2026-05-04 17:46 | 46.25210 | 16.05451 | 35996 ft | 468 kts | 316° |
| 2026-05-04 17:46 | 46.29968 | 15.99014 | 35976 ft | 468 kts | 316° |
| 2026-05-04 17:47 | 46.34544 | 15.92329 | 35975 ft | 468 kts | 314° |
| 2026-05-04 17:47 | 46.39161 | 15.85668 | 35971 ft | 468 kts | 314° |
| 2026-05-04 17:48 | 46.43733 | 15.79041 | 35975 ft | 469 kts | 314° |
| 2026-05-04 17:48 | 46.48327 | 15.72330 | 35975 ft | 469 kts | 314° |
| 2026-05-04 17:49 | 46.52908 | 15.65611 | 35979 ft | 469 kts | 313° |
| 2026-05-04 17:49 | 46.57495 | 15.58867 | 35980 ft | 469 kts | 313° |
| 2026-05-04 17:50 | 46.62047 | 15.52156 | 36001 ft | 469 kts | 313° |
| 2026-05-04 17:50 | 46.66626 | 15.45390 | 35998 ft | 469 kts | 313° |
| 2026-05-04 17:51 | 46.71202 | 15.38612 | 35990 ft | 469 kts | 313° |
| 2026-05-04 17:51 | 46.75763 | 15.31811 | 35978 ft | 469 kts | 310° |
| 2026-05-04 17:52 | 46.79665 | 15.24221 | 35972 ft | 468 kts | 304° |
| 2026-05-04 17:52 | 46.83477 | 15.16554 | 35977 ft | 468 kts | 305° |
| 2026-05-04 17:53 | 46.87315 | 15.08844 | 35981 ft | 468 kts | 304° |
| 2026-05-04 17:53 | 46.91083 | 15.01255 | 35671 ft | 459 kts | 304° |
| 2026-05-04 17:54 | 46.92954 | 14.97477 | 34964 ft | 459 kts | 304° |
| 2026-05-04 17:54 | 46.94826 | 14.93688 | 34116 ft | 462 kts | 304° |
| 2026-05-04 17:54 | 46.96718 | 14.89858 | 33367 ft | 462 kts | 304° |
| 2026-05-04 17:54 | 46.98584 | 14.86075 | 32761 ft | 457 kts | 304° |
| 2026-05-04 17:55 | 47.00432 | 14.82322 | 32172 ft | 453 kts | 304° |
| 2026-05-04 17:55 | 47.02265 | 14.78595 | 31599 ft | 448 kts | 304° |
| 2026-05-04 17:55 | 47.04084 | 14.74892 | 31042 ft | 444 kts | 304° |
| 2026-05-04 17:55 | 47.05879 | 14.71232 | 30507 ft | 440 kts | 304° |
| 2026-05-04 17:56 | 47.07636 | 14.67645 | 29904 ft | 437 kts | 304° |
| 2026-05-04 17:56 | 47.09403 | 14.64033 | 29273 ft | 433 kts | 304° |
| 2026-05-04 17:56 | 47.11138 | 14.60484 | 29019 ft | 424 kts | 304° |
| 2026-05-04 17:56 | 47.12856 | 14.56961 | 28996 ft | 425 kts | 304° |
| 2026-05-04 17:57 | 47.16341 | 14.49800 | 28996 ft | 435 kts | 304° |
| 2026-05-04 17:57 | 47.19854 | 14.42569 | 28982 ft | 434 kts | 304° |
| 2026-05-04 17:58 | 47.23366 | 14.35322 | 28990 ft | 435 kts | 304° |
| 2026-05-04 17:58 | 47.26848 | 14.28112 | 28979 ft | 435 kts | 304° |
| 2026-05-04 17:59 | 47.30350 | 14.20847 | 28976 ft | 436 kts | 303° |
| 2026-05-04 18:00 | 47.35604 | 14.09909 | 28823 ft | 434 kts | 303° |
| 2026-05-04 18:00 | 47.37338 | 14.06291 | 28339 ft | 431 kts | 303° |
| 2026-05-04 18:00 | 47.39064 | 14.02683 | 27757 ft | 428 kts | 303° |
| 2026-05-04 18:00 | 47.40775 | 13.99104 | 27159 ft | 425 kts | 303° |
| 2026-05-04 18:01 | 47.42451 | 13.95593 | 26579 ft | 422 kts | 303° |
| 2026-05-04 18:01 | 47.44132 | 13.92065 | 25998 ft | 419 kts | 303° |
| 2026-05-04 18:01 | 47.45799 | 13.88562 | 25435 ft | 416 kts | 303° |
| 2026-05-04 18:02 | 47.49105 | 13.81601 | 24322 ft | 410 kts | 303° |
| 2026-05-04 18:02 | 47.50735 | 13.78163 | 23755 ft | 408 kts | 303° |
| 2026-05-04 18:02 | 47.52359 | 13.74734 | 23171 ft | 405 kts | 303° |
| 2026-05-04 18:02 | 47.53966 | 13.71339 | 22561 ft | 401 kts | 303° |
| 2026-05-04 18:03 | 47.55538 | 13.68008 | 21926 ft | 399 kts | 303° |
| 2026-05-04 18:03 | 47.57116 | 13.64662 | 21387 ft | 394 kts | 303° |
| 2026-05-04 18:03 | 47.58681 | 13.61347 | 20814 ft | 391 kts | 303° |
| 2026-05-04 18:03 | 47.60231 | 13.58053 | 20237 ft | 388 kts | 303° |
| 2026-05-04 18:04 | 47.61764 | 13.54792 | 19720 ft | 385 kts | 303° |
| 2026-05-04 18:04 | 47.63293 | 13.51536 | 19194 ft | 383 kts | 303° |
| 2026-05-04 18:04 | 47.66306 | 13.45104 | 18118 ft | 378 kts | 303° |
| 2026-05-04 18:05 | 47.67769 | 13.41978 | 17550 ft | 374 kts | 303° |
| 2026-05-04 18:05 | 47.69246 | 13.38818 | 16992 ft | 371 kts | 303° |
| 2026-05-04 18:05 | 47.70695 | 13.35721 | 16458 ft | 367 kts | 303° |
| 2026-05-04 18:05 | 47.72144 | 13.32613 | 15890 ft | 366 kts | 302° |
| 2026-05-04 18:06 | 47.75019 | 13.26437 | 14817 ft | 361 kts | 302° |
| 2026-05-04 18:06 | 47.76442 | 13.23373 | 14286 ft | 359 kts | 302° |
| 2026-05-04 18:06 | 47.77857 | 13.20322 | 13992 ft | 357 kts | 302° |
| 2026-05-04 18:07 | 47.79262 | 13.17293 | 13927 ft | 357 kts | 302° |
| 2026-05-04 18:07 | 47.80674 | 13.14247 | 13923 ft | 358 kts | 302° |
| 2026-05-04 18:07 | 47.82088 | 13.11190 | 13906 ft | 358 kts | 302° |
| 2026-05-04 18:07 | 47.83500 | 13.08136 | 13906 ft | 358 kts | 302° |
| 2026-05-04 18:08 | 47.84906 | 13.05089 | 13900 ft | 358 kts | 302° |
| 2026-05-04 18:08 | 47.86317 | 13.02031 | 13901 ft | 358 kts | 302° |
| 2026-05-04 18:08 | 47.87720 | 12.98984 | 13910 ft | 357 kts | 302° |
| 2026-05-04 18:08 | 47.89125 | 12.95929 | 13909 ft | 357 kts | 301° |
| 2026-05-04 18:09 | 47.91913 | 12.89861 | 13915 ft | 357 kts | 301° |
| 2026-05-04 18:09 | 47.94719 | 12.83746 | 13911 ft | 357 kts | 301° |
| 2026-05-04 18:10 | 47.96070 | 12.80650 | 13911 ft | 356 kts | 297° |
| 2026-05-04 18:10 | 47.97305 | 12.77460 | 13910 ft | 356 kts | 297° |
| 2026-05-04 18:10 | 47.98574 | 12.74279 | 13911 ft | 356 kts | 297° |
| 2026-05-04 18:10 | 47.99851 | 12.71099 | 13911 ft | 356 kts | 297° |
| 2026-05-04 18:11 | 48.01121 | 12.67930 | 13913 ft | 356 kts | 297° |
| 2026-05-04 18:11 | 48.02388 | 12.64752 | 13914 ft | 356 kts | 297° |
| 2026-05-04 18:11 | 48.03654 | 12.61563 | 13914 ft | 356 kts | 297° |
| 2026-05-04 18:11 | 48.04905 | 12.58410 | 13905 ft | 346 kts | 297° |
| 2026-05-04 18:12 | 48.05973 | 12.55748 | 13909 ft | 325 kts | 297° |
| 2026-05-04 18:12 | 48.07115 | 12.52962 | 13915 ft | 304 kts | 297° |
| 2026-05-04 18:12 | 48.08213 | 12.50323 | 13934 ft | 285 kts | 297° |
| 2026-05-04 18:12 | 48.09230 | 12.47907 | 13917 ft | 275 kts | 297° |
| 2026-05-04 18:13 | 48.10246 | 12.45513 | 13920 ft | 271 kts | 297° |
| 2026-05-04 18:13 | 48.11263 | 12.43129 | 13920 ft | 272 kts | 297° |
| 2026-05-04 18:13 | 48.13305 | 12.38363 | 13925 ft | 272 kts | 297° |
| 2026-05-04 18:14 | 48.14327 | 12.35974 | 13925 ft | 273 kts | 297° |
| 2026-05-04 18:14 | 48.15354 | 12.33570 | 13927 ft | 276 kts | 297° |
| 2026-05-04 18:14 | 48.16385 | 12.31145 | 13928 ft | 274 kts | 297° |
| 2026-05-04 18:15 | 48.18422 | 12.26362 | 13928 ft | 272 kts | 297° |
| 2026-05-04 18:15 | 48.20446 | 12.21577 | 13931 ft | 271 kts | 295° |
| 2026-05-04 18:15 | 48.21008 | 12.18995 | 13928 ft | 261 kts | 268° |
| 2026-05-04 18:16 | 48.20704 | 12.16382 | 13937 ft | 254 kts | 245° |
| 2026-05-04 18:16 | 48.20023 | 12.13937 | 13907 ft | 253 kts | 244° |
| 2026-05-04 18:16 | 48.19339 | 12.11511 | 13748 ft | 253 kts | 244° |
| 2026-05-04 18:17 | 48.18144 | 12.06583 | 13123 ft | 257 kts | 263° |
| 2026-05-04 18:17 | 48.18453 | 12.03931 | 12787 ft | 265 kts | 291° |
| 2026-05-04 18:17 | 48.21326 | 12.00550 | 12136 ft | 280 kts | 347° |
| 2026-05-04 18:18 | 48.23265 | 12.00657 | 11837 ft | 282 kts | 16° |
| 2026-05-04 18:18 | 48.24973 | 12.02050 | 11517 ft | 280 kts | 44° |
| 2026-05-04 18:18 | 48.26199 | 12.04243 | 11224 ft | 278 kts | 54° |
| 2026-05-04 18:18 | 48.27355 | 12.06562 | 10922 ft | 276 kts | 60° |
| 2026-05-04 18:19 | 48.28456 | 12.11940 | 10346 ft | 269 kts | 84° |
| 2026-05-04 18:19 | 48.28733 | 12.14713 | 10062 ft | 268 kts | 84° |
| 2026-05-04 18:19 | 48.29004 | 12.17471 | 9796 ft | 266 kts | 83° |
| 2026-05-04 18:20 | 48.29611 | 12.20086 | 9493 ft | 269 kts | 57° |
| 2026-05-04 18:20 | 48.30957 | 12.21993 | 9205 ft | 268 kts | 27° |
| 2026-05-04 18:20 | 48.32736 | 12.22757 | 8798 ft | 269 kts | 359° |
| 2026-05-04 18:20 | 48.34587 | 12.22584 | 8562 ft | 264 kts | 351° |
| 2026-05-04 18:21 | 48.36315 | 12.21833 | 8312 ft | 257 kts | 327° |
| 2026-05-04 18:21 | 48.37566 | 12.20018 | 7850 ft | 257 kts | 295° |
| 2026-05-04 18:21 | 48.37920 | 12.17415 | 7293 ft | 261 kts | 261° |
| 2026-05-04 18:21 | 48.37436 | 12.14763 | 6737 ft | 263 kts | 252° |
| 2026-05-04 18:22 | 48.36992 | 12.12110 | 6188 ft | 256 kts | 258° |
| 2026-05-04 18:22 | 48.36724 | 12.09563 | 5646 ft | 242 kts | 262° |
| 2026-05-04 18:22 | 48.36521 | 12.07067 | 5123 ft | 241 kts | 263° |
| 2026-05-04 18:22 | 48.36326 | 12.04567 | 4625 ft | 238 kts | 263° |
| 2026-05-04 18:23 | 48.36148 | 12.02226 | 4299 ft | 211 kts | 263° |
| 2026-05-04 18:23 | 48.35989 | 12.00160 | 4039 ft | 190 kts | 263° |
| 2026-05-04 18:23 | 48.35842 | 11.98245 | 3804 ft | 185 kts | 263° |
| 2026-05-04 18:23 | 48.35696 | 11.96339 | 3563 ft | 183 kts | 264° |
| 2026-05-04 18:24 | 48.35552 | 11.94467 | 3331 ft | 172 kts | 264° |
| 2026-05-04 18:24 | 48.35422 | 11.92773 | 3113 ft | 156 kts | 263° |
| 2026-05-04 18:24 | 48.35301 | 11.91192 | 2921 ft | 151 kts | 264° |
| 2026-05-04 18:24 | 48.35181 | 11.89625 | 2724 ft | 149 kts | 264° |
| 2026-05-04 18:25 | 48.35062 | 11.88073 | 2526 ft | 150 kts | 264° |
| 2026-05-04 18:25 | 48.34944 | 11.86527 | 2327 ft | 147 kts | 264° |
| 2026-05-04 18:25 | 48.34827 | 11.85003 | 2120 ft | 146 kts | 264° |
| 2026-05-04 18:25 | 48.34698 | 11.83503 | 1896 ft | 145 kts | 263° |
| 2026-05-04 18:26 | 48.34575 | 11.82011 | 1728 ft | 144 kts | 265° |
| 2026-05-04 18:26 | 48.34468 | 11.80525 | 1538 ft | 143 kts | 265° |
| 2026-05-04 18:26 | 48.34381 | 11.79172 | 1491 ft | 108 kts | 263° |
| 2026-05-04 18:26 | 48.34315 | 11.78280 | 1490 ft | 66 kts | 262° |
| 2026-05-04 18:27 | 48.34355 | 11.77878 | 1478 ft | 23 kts | 289° |
| 2026-05-04 18:27 | 48.34393 | 11.77720 | 1481 ft | 14 kts | 293° |
| 2026-05-04 18:27 | 48.34400 | 11.77694 | 1477 ft | 0 kts | 293° |
| 2026-05-04 18:27 | 48.34407 | 11.77671 | 1486 ft | 7 kts | 293° |
| 2026-05-04 18:28 | 48.34424 | 11.77613 | 1478 ft | 12 kts | 294° |
| 2026-05-04 18:28 | 48.34504 | 11.77449 | 1484 ft | 17 kts | 334° |
| 2026-05-04 18:28 | 48.34598 | 11.77432 | 1481 ft | 7 kts | 29° |
| 2026-05-04 18:28 | 48.34626 | 11.77476 | 1477 ft | 10 kts | 65° |
| 2026-05-04 18:29 | 48.34643 | 11.77614 | 1487 ft | 17 kts | 84° |
| 2026-05-04 18:29 | 48.34656 | 11.77797 | 1488 ft | 17 kts | 84° |
| 2026-05-04 18:29 | 48.34669 | 11.77971 | 1485 ft | 19 kts | 84° |
| 2026-05-04 18:29 | 48.34685 | 11.78201 | 1481 ft | 16 kts | 82° |
| 2026-05-04 18:30 | 48.34718 | 11.78596 | 1487 ft | 21 kts | 84° |
| 2026-05-04 18:30 | 48.34728 | 11.78744 | 1479 ft | 22 kts | 84° |
| 2026-05-04 18:30 | 48.34746 | 11.78978 | 1490 ft | 23 kts | 83° |
| 2026-05-04 18:31 | 48.34764 | 11.79202 | 1490 ft | 19 kts | 82° |
| 2026-05-04 18:31 | 48.34781 | 11.79413 | 1488 ft | 19 kts | 84° |
| 2026-05-04 18:31 | 48.34815 | 11.79544 | 1477 ft | 12 kts | 28° |
| 2026-05-04 18:31 | 48.34881 | 11.79552 | 1479 ft | 3 kts | 353° |
| 2026-05-04 18:32 | 48.34901 | 11.79548 | 1487 ft | 7 kts | 353° |
| 2026-05-04 18:33 | 48.34942 | 11.79541 | 1485 ft | 0 kts | 353° |
| 2026-05-04 18:33 | 48.34989 | 11.79533 | 1478 ft | 6 kts | 349° |
| 2026-05-04 18:33 | 48.35004 | 11.79526 | 1483 ft | 5 kts | 328° |
| 2026-05-04 18:33 | 48.35021 | 11.79492 | 1482 ft | 1 kts | 282° |
| 2026-05-04 18:34 | 48.35020 | 11.79456 | 1485 ft | 6 kts | 265° |
| 2026-05-04 18:34 | 48.35018 | 11.79422 | 1488 ft | 3 kts | 264° |
| 2026-05-04 18:34 | 48.35016 | 11.79395 | 1488 ft | 1 kts | 264° |
| 2026-05-04 18:34 | 48.35015 | 11.79381 | 1485 ft | 0 kts | 264° |